Webster, Florida
Current Conditions -  °F | °C
As of 3:53 AM on Monday 20 Oct 2014 (Local Time) from KLEE Reporting Station
Clear Clear  
Wind Chill: 66°   Ceiling: Unl
Heat Index: 66°   Visibility: 10mi
Dew Point: 63°   Wind: 3mph
Humidity: 90%   Direction: 30°NNE
Pressure: 30.04"   Gusts: NA
Location:  28.61°N, 82.06°W
Report Text: KLEE 200753Z AUTO 03003KT 10SM CLR 19/17 A3004 RMK AO2 SLP170 T01890172
Loading
Personal Weather Stations






























Interactive Weather Map
Tropical Storm Tracking
New forecast layout! Learn more

10-Day Weather Forecast

Advertisements
Track Severe Weather on mobile